Time;durP1;ratioP1;P1;durP2;ratioP2;P2;SDS_P1;SDS_P2;PMS_P1;PMS_P2;Temp;Humidity;BMP_temperature;BMP_pressure;BME280_temperature;BME280_humidity;BME280_pressure;Samples;Min_cycle;Max_cycle;Signal;HPM_P1;HPM_P2
2020/12/13 00:00:07;;;;;;;22.41;11.77;;;;;;;0.75;70.98;99294.97;355153;110;1962221;-73
2020/12/13 00:01:12;;;;;;;23.64;12.25;;;;;;;0.74;71.08;99296.80;350513;113;1961975;-73
2020/12/13 00:02:22;;;;;;;26.05;12.60;;;;;;;0.75;71.19;99295.80;349747;112;1961979;-73
2020/12/13 00:03:29;;;;;;;21.89;11.51;;;;;;;0.81;71.20;99300.50;351624;112;1965012;-74
2020/12/13 00:04:35;;;;;;;23.95;11.71;;;;;;;0.87;71.21;99302.57;298644;112;2204765;-73
2020/12/13 00:05:40;;;;;;;23.41;12.29;;;;;;;0.93;70.94;99302.92;338565;112;1961813;-73
2020/12/13 00:06:46;;;;;;;22.01;11.54;;;;;;;0.94;70.83;99301.95;353072;112;1961987;-71
2020/12/13 00:07:53;;;;;;;20.84;11.45;;;;;;;0.92;70.78;99304.75;351651;112;1961983;-71
2020/12/13 00:09:01;;;;;;;21.39;11.65;;;;;;;0.92;70.93;99310.06;315399;112;2237986;-72
2020/12/13 00:10:06;;;;;;;21.34;11.34;;;;;;;0.97;71.08;99309.61;351659;112;1963989;-73
2020/12/13 00:11:12;;;;;;;22.32;11.06;;;;;;;1.01;70.92;99316.31;352546;112;1961949;-73
2020/12/13 00:12:18;;;;;;;24.98;11.98;;;;;;;1.02;70.82;99313.48;306099;113;2823042;-73
2020/12/13 00:13:24;;;;;;;24.19;11.77;;;;;;;1.00;70.76;99304.81;328681;113;1962085;-72
2020/12/13 00:14:31;;;;;;;24.24;11.87;;;;;;;1.03;70.85;99306.33;350873;113;1961980;-72
2020/12/13 00:15:36;;;;;;;23.91;11.91;;;;;;;1.06;70.77;99309.55;351955;113;1964047;-71
2020/12/13 00:16:43;;;;;;;23.17;11.41;;;;;;;1.06;70.81;99304.22;350277;113;1965075;-73
2020/12/13 00:17:49;;;;;;;21.27;11.63;;;;;;;1.06;70.75;99314.86;351789;113;1961942;-73
2020/12/13 00:18:55;;;;;;;22.35;11.84;;;;;;;1.05;70.87;99310.51;351297;113;1961941;-72
2020/12/13 00:20:00;;;;;;;24.93;12.41;;;;;;;1.07;70.92;99310.37;350042;113;1964956;-73
2020/12/13 00:21:08;;;;;;;25.51;11.46;;;;;;;1.14;70.91;99313.23;303925;113;2854956;-73
2020/12/13 00:22:13;;;;;;;21.41;12.15;;;;;;;1.13;70.75;99314.23;352057;113;1963058;-72
2020/12/13 00:23:18;;;;;;;24.99;11.81;;;;;;;1.15;70.78;99313.09;351620;113;1961963;-72
2020/12/13 00:24:25;;;;;;;23.32;12.14;;;;;;;1.19;70.67;99302.97;351452;113;1962894;-72
2020/12/13 00:25:32;;;;;;;25.36;13.32;;;;;;;1.21;70.58;99314.30;351443;113;1962015;-73
2020/12/13 00:26:42;;;;;;;22.62;10.69;;;;;;;1.22;70.52;99311.49;351530;113;1961968;-72
2020/12/13 00:27:47;;;;;;;25.58;12.71;;;;;;;1.19;70.58;99305.63;345004;117;1960937;-72
2020/12/13 00:28:53;;;;;;;24.62;12.53;;;;;;;1.21;70.54;99315.13;342578;116;1960979;-72
2020/12/13 00:29:58;;;;;;;23.27;12.00;;;;;;;1.21;70.60;99312.47;342789;116;1960859;-72
2020/12/13 00:31:05;;;;;;;25.37;11.54;;;;;;;1.21;70.65;99312.47;342105;116;1962996;-71
2020/12/13 00:32:10;;;;;;;29.59;13.23;;;;;;;1.24;70.71;99311.32;340353;117;1961961;-73
2020/12/13 00:33:16;;;;;;;27.91;14.11;;;;;;;1.25;70.58;99310.35;338297;117;1961988;-71
2020/12/13 00:34:21;;;;;;;29.44;14.39;;;;;;;1.25;70.40;99313.84;343251;115;1962048;-72
2020/12/13 00:35:28;;;;;;;29.29;13.65;;;;;;;1.24;70.36;99314.81;343947;115;1962966;-72
2020/12/13 00:36:35;;;;;;;26.52;13.45;;;;;;;1.25;70.60;99313.02;341091;116;1963930;-72
2020/12/13 00:37:41;;;;;;;26.79;11.59;;;;;;;1.27;70.54;99308.34;341828;116;1961978;-72
2020/12/13 00:38:59;;;;;;;27.83;12.96;;;;;;;1.28;70.36;99302.88;344694;115;1961902;-71
2020/12/13 00:40:05;;;;;;;27.60;13.28;;;;;;;1.26;70.22;99304.86;351550;114;1961964;-72
2020/12/13 00:41:11;;;;;;;28.51;12.83;;;;;;;1.23;70.52;99307.00;351391;112;1961970;-72
2020/12/13 00:42:17;;;;;;;25.61;12.63;;;;;;;1.24;70.43;99300.68;349236;114;1962032;-71
2020/12/13 00:43:23;;;;;;;23.81;12.50;;;;;;;1.24;70.43;99306.00;311056;114;2671962;-71
2020/12/13 00:44:28;;;;;;;26.43;12.92;;;;;;;1.23;70.52;99301.68;343021;115;1965002;-71
2020/12/13 00:45:33;;;;;;;24.77;11.97;;;;;;;1.23;70.55;99301.68;348556;115;1961988;-74
2020/12/13 00:46:41;;;;;;;26.88;13.32;;;;;;;1.25;70.57;99302.38;347186;115;1960865;-73
2020/12/13 00:47:47;;;;;;;26.73;13.66;;;;;;;1.24;70.58;99300.68;317373;116;2455018;-73
2020/12/13 00:49:03;;;;;;;26.19;13.22;;;;;;;1.25;70.68;99302.38;323133;116;1962030;-73
2020/12/13 00:50:09;;;;;;;26.99;14.64;;;;;;;1.26;70.78;99293.38;358601;111;1961998;-73
2020/12/13 00:51:25;;;;;;;29.07;13.96;;;;;;;1.28;70.69;99296.73;356559;111;1961978;-72
2020/12/13 00:52:31;;;;;;;31.67;13.86;;;;;;;1.31;70.74;99291.92;331135;111;1963959;-72
2020/12/13 00:53:38;;;;;;;31.54;14.01;;;;;;;1.33;70.65;99298.94;352606;111;1962961;-72
2020/12/13 00:54:43;;;;;;;33.92;14.43;;;;;;;1.34;70.43;99288.12;348769;114;1962002;-72
2020/12/13 00:55:49;;;;;;;33.99;15.34;;;;;;;1.36;70.19;99287.97;348614;114;1963015;-72
2020/12/13 00:56:55;;;;;;;30.86;13.87;;;;;;;1.34;70.44;99288.12;303133;114;2118268;-72
2020/12/13 00:58:01;;;;;;;31.90;13.92;;;;;;;1.34;70.43;99292.61;346025;114;1962001;-71
2020/12/13 00:59:06;;;;;;;32.39;14.34;;;;;;;1.31;70.46;99289.27;348940;114;1961993;-72
2020/12/13 01:00:12;;;;;;;32.62;15.09;;;;;;;1.33;70.48;99296.27;346452;109;1961921;-72
2020/12/13 01:01:17;;;;;;;34.17;15.13;;;;;;;1.34;70.52;99281.97;339511;117;1962951;-72
2020/12/13 01:02:23;;;;;;;31.72;14.50;;;;;;;1.30;70.39;99292.09;343783;116;1961943;-71
2020/12/13 01:03:29;;;;;;;32.23;14.80;;;;;;;1.31;70.70;99293.75;302218;116;2040489;-72
2020/12/13 01:04:35;;;;;;;32.16;14.31;;;;;;;1.32;70.58;99287.43;331076;114;1961927;-72
2020/12/13 01:05:40;;;;;;;32.74;15.00;;;;;;;1.34;70.65;99288.12;345835;114;1961979;-72
2020/12/13 01:06:46;;;;;;;33.32;14.89;;;;;;;1.33;70.50;99281.14;348341;114;1965377;-71
2020/12/13 01:07:51;;;;;;;32.43;15.51;;;;;;;1.27;70.50;99287.06;347171;114;1962367;-73
2020/12/13 01:08:57;;;;;;;32.60;14.42;;;;;;;1.29;70.76;99283.25;346706;114;1962036;-73
2020/12/13 01:10:05;;;;;;;37.72;15.39;;;;;;;1.31;70.70;99280.45;303556;116;2803063;-73
2020/12/13 01:11:10;;;;;;;40.48;16.10;;;;;;;1.33;70.65;99288.29;346521;115;1962956;-73
2020/12/13 01:12:15;;;;;;;31.17;13.90;;;;;;;1.31;70.57;99289.27;345528;115;1962899;-72
2020/12/13 01:13:21;;;;;;;33.23;14.34;;;;;;;1.31;70.54;99283.11;346160;115;1962026;-72
2020/12/13 01:14:28;;;;;;;32.32;14.41;;;;;;;1.32;70.68;99287.43;313828;115;2903935;-72
2020/12/13 01:15:33;;;;;;;28.73;15.42;;;;;;;1.33;70.55;99283.80;318137;117;1962010;-72
2020/12/13 01:16:38;;;;;;;38.67;16.07;;;;;;;1.31;70.48;99278.63;339639;115;1962017;-72
2020/12/13 01:17:46;;;;;;;33.77;14.72;;;;;;;1.33;70.67;99283.80;345991;115;1962053;-72
2020/12/13 01:18:53;;;;;;;31.55;14.33;;;;;;;1.34;70.54;99281.97;317656;115;2493100;-72
2020/12/13 01:19:58;;;;;;;31.16;16.22;;;;;;;1.34;70.60;99284.63;345139;115;1961924;-72
2020/12/13 01:21:04;;;;;;;36.93;14.95;;;;;;;1.30;70.75;99282.28;344798;115;1961922;-73
2020/12/13 01:22:10;;;;;;;36.42;13.95;;;;;;;1.29;70.71;99283.25;345774;115;1961999;-71
2020/12/13 01:23:16;;;;;;;32.62;14.16;;;;;;;1.29;70.84;99290.41;326672;115;1960688;-72
2020/12/13 01:24:22;;;;;;;32.97;13.77;;;;;;;1.28;70.79;99278.94;346036;109;1960799;-70
2020/12/13 01:25:27;;;;;;;34.57;14.91;;;;;;;1.29;70.87;99280.59;344465;115;1961953;-72
2020/12/13 01:26:33;;;;;;;24.57;13.26;;;;;;;1.29;70.89;99282.42;345101;115;1960993;-71
2020/12/13 01:27:39;;;;;;;29.77;14.65;;;;;;;1.32;70.98;99282.11;344855;115;1962027;-71
2020/12/13 01:28:46;;;;;;;34.60;14.53;;;;;;;1.34;70.84;99280.13;295941;115;2854010;-72
2020/12/13 01:29:51;;;;;;;38.65;15.57;;;;;;;1.33;70.87;99277.65;340637;117;1961986;-71
2020/12/13 01:30:57;;;;;;;32.50;14.34;;;;;;;1.29;70.87;99277.94;339330;117;1961904;-71
2020/12/13 01:32:03;;;;;;;30.67;14.45;;;;;;;1.33;71.02;99278.47;341376;117;1961918;-72
2020/12/13 01:33:09;;;;;;;33.02;15.24;;;;;;;1.41;70.79;99267.05;316882;117;2426958;-72
2020/12/13 01:34:16;;;;;;;32.02;14.86;;;;;;;1.40;70.62;99274.17;341595;117;1961976;-72
2020/12/13 01:35:21;;;;;;;31.66;13.87;;;;;;;1.38;70.47;99272.69;338598;117;1962052;-72
2020/12/13 01:36:30;;;;;;;34.97;13.51;;;;;;;1.36;70.59;99270.17;340891;117;1962091;-73
2020/12/13 01:37:35;;;;;;;31.71;14.44;;;;;;;1.35;70.78;99268.52;340023;117;1961986;-72
2020/12/13 01:38:40;;;;;;;31.64;14.33;;;;;;;1.37;70.71;99271.00;340391;117;1961966;-72
2020/12/13 01:39:46;;;;;;;33.07;13.82;;;;;;;1.38;70.83;99270.86;340490;117;1960848;-72
2020/12/13 01:40:57;;;;;;;32.01;13.56;;;;;;;1.40;70.84;99268.85;339647;117;1961911;-72
2020/12/13 01:42:04;;;;;;;38.76;13.66;;;;;;;1.40;70.80;99266.19;327248;117;1961947;-72
2020/12/13 01:43:10;;;;;;;34.52;15.79;;;;;;;1.44;70.72;99272.05;339048;117;1961986;-72
2020/12/13 01:44:15;;;;;;;32.73;17.02;;;;;;;1.43;70.55;99265.91;339872;117;1961945;-72
2020/12/13 01:45:20;;;;;;;32.76;14.54;;;;;;;1.42;70.57;99269.53;340384;117;1961968;-72
2020/12/13 01:46:28;;;;;;;31.08;15.57;;;;;;;1.41;70.55;99267.88;339520;117;1961956;-72
2020/12/13 01:47:34;;;;;;;35.50;16.00;;;;;;;1.42;70.85;99272.20;340179;117;1963997;-72
2020/12/13 01:48:40;;;;;;;34.45;13.88;;;;;;;1.42;70.70;99272.20;338334;117;1963019;-72
2020/12/13 01:49:48;;;;;;;37.53;17.17;;;;;;;1.28;70.72;99246.17;336130;118;1962928;-72
2020/12/13 01:51:14;;;;;;;28.69;13.21;;;;;;;1.45;70.78;99273.71;339159;117;1962028;-72
2020/12/13 01:53:44;;;;;;;31.81;14.29;;;;;;;1.49;70.50;99270.59;340112;117;1962231;-72
2020/12/13 01:55:04;;;;;;;30.79;14.57;;;;;;;1.49;70.45;99269.76;355618;111;1962018;-72
2020/12/13 01:56:22;;;;;;;30.87;14.48;;;;;;;1.46;70.56;99276.23;306025;111;2877991;-72
2020/12/13 01:57:36;;;;;;;27.64;13.60;;;;;;;1.46;70.52;99264.75;320299;113;2480001;-71
2020/12/13 01:58:46;;;;;;;31.46;13.94;;;;;;;1.46;70.55;99270.08;348642;113;1963980;-72
2020/12/13 01:59:53;;;;;;;34.44;14.27;;;;;;;1.46;70.59;99262.09;349771;113;1963005;-71
2020/12/13 02:01:01;;;;;;;32.09;14.48;;;;;;;1.47;70.64;99264.58;345498;114;1961925;-71
2020/12/13 02:02:07;;;;;;;34.78;14.65;;;;;;;1.49;70.34;99262.60;348643;115;1962068;-72
2020/12/13 02:03:19;;;;;;;28.88;12.43;;;;;;;1.47;70.39;99259.25;348017;115;1962032;-72
2020/12/13 02:04:27;;;;;;;31.57;13.28;;;;;;;1.47;70.50;99267.24;325841;115;1961924;-71
2020/12/13 02:05:34;;;;;;;27.13;12.69;;;;;;;1.47;70.63;99259.25;345498;115;1962044;-71
2020/12/13 02:06:44;;;;;;;31.14;13.47;;;;;;;1.48;70.72;99260.09;346366;115;1961887;-71
2020/12/13 02:07:50;;;;;;;25.72;12.54;;;;;;;1.49;70.64;99262.60;347729;115;1961957;-72
2020/12/13 02:08:55;;;;;;;29.97;12.03;;;;;;;1.50;70.61;99261.59;347176;115;1963911;-72
2020/12/13 02:10:04;;;;;;;26.52;12.91;;;;;;;1.53;70.52;99255.13;347173;115;1961929;-71
2020/12/13 02:11:10;;;;;;;26.38;12.29;;;;;;;1.54;70.44;99260.30;340926;114;1966814;-71
2020/12/13 02:12:16;;;;;;;27.22;12.63;;;;;;;1.53;70.46;99258.65;344679;115;1962996;-72
2020/12/13 02:13:22;;;;;;;25.29;12.32;;;;;;;1.55;70.46;99258.47;347413;114;1961974;-71
2020/12/13 02:14:28;;;;;;;24.10;12.43;;;;;;;1.56;70.52;99254.80;315743;115;2592017;-70
2020/12/13 02:15:34;;;;;;;27.67;12.07;;;;;;;1.58;70.40;99252.00;322141;115;1961992;-71
2020/12/13 02:16:51;;;;;;;26.48;12.78;;;;;;;1.58;70.40;99259.98;300022;115;2858078;-72
2020/12/13 02:17:56;;;;;;;29.30;12.09;;;;;;;1.58;70.30;99262.64;349179;114;1962941;-71
2020/12/13 02:19:02;;;;;;;23.21;10.62;;;;;;;1.55;70.35;99261.13;325957;114;2227008;-71
2020/12/13 02:20:11;;;;;;;29.29;13.19;;;;;;;1.54;70.39;99275.45;347609;115;1961968;-71
2020/12/13 02:21:28;;;;;;;26.23;11.26;;;;;;;1.54;70.29;99278.94;310984;115;1982713;-71
2020/12/13 02:22:35;;;;;;;26.52;11.86;;;;;;;1.54;70.37;99278.94;349837;113;1961934;-72
2020/12/13 02:23:42;;;;;;;27.03;11.68;;;;;;;1.53;70.36;99271.09;349375;113;1962931;-72
2020/12/13 02:24:47;;;;;;;24.63;12.38;;;;;;;1.53;70.33;99265.77;350925;113;1961966;-72
2020/12/13 02:25:53;;;;;;;25.63;12.02;;;;;;;1.52;70.47;99266.78;351505;113;1961976;-72
2020/12/13 02:26:58;;;;;;;25.26;13.20;;;;;;;1.50;70.45;99266.92;351141;113;1963021;-72
2020/12/13 02:28:05;;;;;;;26.68;10.52;;;;;;;1.51;70.61;99268.61;351652;113;1966015;-72
2020/12/13 02:29:11;;;;;;;25.49;11.21;;;;;;;1.51;70.56;99265.95;326952;113;2389955;-73
2020/12/13 02:30:19;;;;;;;23.42;11.44;;;;;;;1.53;70.61;99271.09;350271;113;1961901;-73
2020/12/13 02:31:25;;;;;;;22.84;11.82;;;;;;;1.54;70.62;99270.95;313393;113;2685985;-72
2020/12/13 02:32:31;;;;;;;24.41;11.76;;;;;;;1.59;70.54;99266.97;352335;113;1961894;-72
2020/12/13 02:33:37;;;;;;;24.88;11.14;;;;;;;1.60;70.39;99266.82;351003;112;1961944;-72
2020/12/13 02:34:42;;;;;;;23.60;11.48;;;;;;;1.60;70.47;99279.30;349248;113;1961909;-72
2020/12/13 02:35:48;;;;;;;26.22;12.39;;;;;;;1.61;70.47;99283.63;350293;113;1964065;-72
2020/12/13 02:36:54;;;;;;;22.90;11.41;;;;;;;1.62;70.53;99278.16;315206;113;2598985;-72
2020/12/13 02:37:59;;;;;;;24.24;10.93;;;;;;;1.63;70.50;99269.16;325374;113;1961962;-71
2020/12/13 02:39:06;;;;;;;24.22;13.07;;;;;;;1.66;70.12;99268.84;349489;113;1961965;-72
2020/12/13 02:40:12;;;;;;;27.62;12.59;;;;;;;1.65;70.23;99266.36;349657;113;1962017;-72
2020/12/13 02:41:19;;;;;;;26.47;11.87;;;;;;;1.60;70.36;99264.16;310761;113;2705057;-72
2020/12/13 02:42:24;;;;;;;27.91;12.05;;;;;;;1.62;70.63;99269.34;348791;114;1961985;-72
2020/12/13 02:43:30;;;;;;;28.15;13.04;;;;;;;1.64;70.51;99259.34;342066;116;1964135;-72
2020/12/13 02:44:35;;;;;;;22.10;12.53;;;;;;;1.65;70.47;99263.69;350320;113;1961929;-71
2020/12/13 02:45:41;;;;;;;25.07;12.64;;;;;;;1.65;70.46;99261.86;350838;113;1961923;-72
2020/12/13 02:46:47;;;;;;;25.29;10.67;;;;;;;1.66;70.55;99260.85;305109;113;2797989;-71
2020/12/13 02:47:53;;;;;;;24.53;11.73;;;;;;;1.67;70.51;99257.22;340346;113;1963997;-72
2020/12/13 02:48:59;;;;;;;25.66;12.36;;;;;;;1.69;70.38;99265.89;353937;111;1961642;-72
2020/12/13 02:50:05;;;;;;;23.71;12.29;;;;;;;1.66;70.40;99260.85;359721;110;1961053;-71
2020/12/13 02:51:11;;;;;;;20.75;11.43;;;;;;;1.68;70.36;99263.37;359255;110;1960653;-72
2020/12/13 02:52:18;;;;;;;21.44;11.22;;;;;;;1.66;70.41;99255.53;310469;110;2864962;-72
2020/12/13 02:53:23;;;;;;;22.84;11.08;;;;;;;1.65;70.57;99259.20;357099;111;1963950;-72
2020/12/13 02:54:30;;;;;;;26.25;12.54;;;;;;;1.68;70.58;99268.70;355599;111;1961951;-73
2020/12/13 02:55:36;;;;;;;25.73;12.01;;;;;;;1.62;70.61;99270.16;312994;113;2777938;-72
2020/12/13 02:56:43;;;;;;;22.15;12.24;;;;;;;1.67;70.56;99261.71;361068;110;1961956;-72
2020/12/13 02:57:48;;;;;;;21.28;11.16;;;;;;;1.66;70.57;99265.34;356295;113;1961962;-72
2020/12/13 02:58:53;;;;;;;28.04;12.94;;;;;;;1.63;70.82;99265.67;357166;111;1961948;-72
2020/12/13 02:59:59;;;;;;;24.62;11.89;;;;;;;1.63;70.87;99258.52;355746;111;1962108;-72
2020/12/13 03:01:05;;;;;;;24.90;11.23;;;;;;;1.64;71.04;99262.00;317307;111;2679996;-72
2020/12/13 03:02:10;;;;;;;22.61;11.36;;;;;;;1.66;71.00;99260.02;334555;110;1963004;-71
2020/12/13 03:03:16;;;;;;;25.56;12.82;;;;;;;1.67;70.94;99262.55;358174;110;1962969;-72
2020/12/13 03:04:21;;;;;;;24.88;12.27;;;;;;;1.69;71.04;99262.36;358414;110;1962083;-72
2020/12/13 03:05:26;;;;;;;26.07;11.97;;;;;;;1.71;70.96;99263.05;358945;110;1962011;-72
2020/12/13 03:06:34;;;;;;;26.72;12.26;;;;;;;1.73;70.96;99259.23;358657;110;1962059;-72
2020/12/13 03:07:40;;;;;;;26.74;11.42;;;;;;;1.76;70.78;99266.07;331296;110;1962962;-72
2020/12/13 03:08:45;;;;;;;23.62;11.79;;;;;;;1.75;70.79;99261.75;348490;110;1961902;-72
2020/12/13 03:09:50;;;;;;;25.92;12.86;;;;;;;1.75;70.82;99259.91;357101;111;1962054;-73
2020/12/13 03:10:55;;;;;;;27.41;12.51;;;;;;;1.75;70.84;99257.25;357380;111;1962940;-72
2020/12/13 03:12:00;;;;;;;31.14;12.19;;;;;;;1.74;70.81;99257.40;356930;111;1961942;-71
2020/12/13 03:13:06;;;;;;;29.49;13.70;;;;;;;1.73;70.92;99259.23;355145;112;1961958;-71
2020/12/13 03:14:11;;;;;;;30.10;13.39;;;;;;;1.75;70.85;99265.23;360594;111;1962022;-71
2020/12/13 03:15:17;;;;;;;29.51;12.71;;;;;;;1.72;70.97;99265.56;354180;111;1961995;-72
2020/12/13 03:16:23;;;;;;;30.64;13.14;;;;;;;1.72;71.13;99264.70;328623;111;1962956;-71
2020/12/13 03:18:43;;;;;;;29.89;14.05;;;;;;;1.88;71.13;99266.61;356958;103;1985912;-72
2020/12/13 03:19:48;;;;;;;26.86;13.02;;;;;;;1.74;71.18;99268.87;364848;108;1961977;-72
2020/12/13 03:21:05;;;;;;;31.19;12.56;;;;;;;1.70;71.25;99267.55;367103;108;1961939;-72
2020/12/13 03:22:11;;;;;;;30.54;13.01;;;;;;;1.68;71.22;99269.52;365879;108;1961883;-70
2020/12/13 03:23:17;;;;;;;30.98;13.16;;;;;;;1.64;71.49;99267.33;324710;110;2725000;-72
2020/12/13 03:24:22;;;;;;;27.19;14.21;;;;;;;1.62;71.59;99269.34;340064;111;1961899;-72
2020/12/13 03:25:27;;;;;;;27.88;13.33;;;;;;;1.60;71.84;99272.14;360746;110;1963026;-73
2020/12/13 03:26:33;;;;;;;32.63;14.41;;;;;;;1.60;71.96;99277.47;360130;110;1964027;-72
2020/12/13 03:27:38;;;;;;;29.24;12.59;;;;;;;1.63;71.89;99265.67;358670;110;1961038;-72
2020/12/13 03:28:45;;;;;;;27.51;12.45;;;;;;;1.65;71.95;99266.36;358683;110;1963975;-72
2020/12/13 03:29:51;;;;;;;29.84;13.63;;;;;;;1.65;72.07;99261.03;342875;110;2948023;-72
2020/12/13 03:30:56;;;;;;;27.49;12.68;;;;;;;1.63;71.97;99261.17;361008;110;1966011;-72
2020/12/13 03:32:02;;;;;;;25.57;12.71;;;;;;;1.63;72.03;99263.01;359941;110;1961986;-71
2020/12/13 03:33:08;;;;;;;25.06;11.90;;;;;;;1.62;72.14;99264.84;360608;110;1961991;-72
2020/12/13 03:34:13;;;;;;;25.61;12.84;;;;;;;1.62;72.48;99264.84;360498;111;1961989;-72
2020/12/13 03:35:19;;;;;;;24.18;11.91;;;;;;;1.62;72.45;99264.84;359889;110;1961949;-72
2020/12/13 03:36:25;;;;;;;29.94;12.33;;;;;;;1.65;72.41;99266.36;313533;110;2090183;-72
2020/12/13 03:37:30;;;;;;;24.27;11.04;;;;;;;1.68;72.30;99261.53;347688;111;1962027;-71
2020/12/13 03:38:36;;;;;;;23.86;12.08;;;;;;;1.69;72.38;99260.56;363357;108;1961887;-72
2020/12/13 03:39:52;;;;;;;25.53;12.41;;;;;;;1.70;72.29;99256.89;373112;107;1963025;-72
2020/12/13 03:40:58;;;;;;;28.08;12.58;;;;;;;1.73;72.30;99259.23;360483;110;1961998;-71
2020/12/13 03:42:04;;;;;;;23.08;10.76;;;;;;;1.80;72.02;99263.91;301201;110;2217327;-72
2020/12/13 03:43:09;;;;;;;27.52;12.16;;;;;;;1.81;71.97;99258.44;330374;108;1961944;-72
2020/12/13 03:44:14;;;;;;;21.98;10.72;;;;;;;1.81;72.26;99257.61;366827;108;1963024;-72
2020/12/13 03:45:20;;;;;;;27.30;11.76;;;;;;;1.84;72.15;99252.78;365688;108;1961987;-72
2020/12/13 03:46:29;;;;;;;25.49;11.93;;;;;;;1.85;72.10;99246.45;367435;108;1961916;-72
2020/12/13 03:47:35;;;;;;;22.55;11.84;;;;;;;1.89;72.20;99244.33;365996;108;1961978;-72
2020/12/13 03:48:42;;;;;;;23.14;11.46;;;;;;;1.92;72.24;99230.68;366160;108;1961868;-72
2020/12/13 03:49:47;;;;;;;23.75;11.41;;;;;;;1.92;71.95;99234.17;331015;108;2604994;-72
2020/12/13 03:50:53;;;;;;;23.97;11.59;;;;;;;1.93;72.05;99232.34;356805;108;1962086;-72
2020/12/13 03:51:59;;;;;;;19.55;9.86;;;;;;;1.95;72.16;99233.84;366915;108;1962018;-72
2020/12/13 03:53:07;;;;;;;21.67;10.59;;;;;;;1.97;72.13;99233.70;369033;108;1960970;-72
2020/12/13 03:54:12;;;;;;;22.30;10.23;;;;;;;2.00;71.98;99240.53;322772;108;2064991;-72
2020/12/13 03:55:17;;;;;;;23.12;11.15;;;;;;;2.00;72.11;99236.03;356343;108;1963780;-72
2020/12/13 03:56:23;;;;;;;20.56;10.57;;;;;;;2.03;71.84;99230.38;346553;114;1961939;-71
2020/12/13 03:57:30;;;;;;;19.78;9.58;;;;;;;1.98;71.90;99228.22;355071;112;1964011;-72
2020/12/13 03:58:36;;;;;;;20.89;10.91;;;;;;;1.98;72.08;99233.55;308516;113;2782942;-71
2020/12/13 03:59:41;;;;;;;20.52;11.21;;;;;;;2.00;72.08;99235.20;320775;113;1961949;-72
2020/12/13 04:00:47;;;;;;;18.84;10.09;;;;;;;2.00;71.96;99233.37;349956;113;1963914;-72
2020/12/13 04:01:53;;;;;;;20.16;10.08;;;;;;;2.01;72.03;99229.70;351621;113;1960886;-72
2020/12/13 04:02:59;;;;;;;21.16;10.51;;;;;;;2.01;72.07;99239.52;350412;113;1961933;-72
2020/12/13 04:04:10;;;;;;;20.76;10.08;;;;;;;1.98;72.17;99243.34;350576;113;1961954;-72
2020/12/13 04:05:16;;;;;;;24.17;11.64;;;;;;;1.99;72.17;99245.03;304328;113;2233966;-72
2020/12/13 04:06:21;;;;;;;22.75;10.37;;;;;;;2.00;72.17;99254.68;348539;113;1962890;-72
2020/12/13 04:07:27;;;;;;;21.06;10.63;;;;;;;2.02;72.13;99244.70;350037;113;1961975;-72
2020/12/13 04:08:32;;;;;;;21.66;11.21;;;;;;;2.03;72.22;99249.02;348262;113;1961983;-72
2020/12/13 04:09:37;;;;;;;22.48;11.37;;;;;;;2.06;72.16;99255.86;349914;113;1962033;-72
2020/12/13 04:10:43;;;;;;;18.29;10.11;;;;;;;2.05;72.20;99256.87;347946;114;1964883;-72
2020/12/13 04:11:49;;;;;;;23.09;10.87;;;;;;;2.07;72.06;99249.55;317960;113;2900674;-73
2020/12/13 04:12:54;;;;;;;23.36;10.57;;;;;;;2.05;72.32;99252.38;324370;113;1963944;-72
2020/12/13 04:14:00;;;;;;;23.23;9.88;;;;;;;2.05;72.28;99255.03;337115;114;1961979;-72
2020/12/13 04:15:05;;;;;;;23.96;10.81;;;;;;;2.07;72.20;99250.39;348847;114;1965018;-72
2020/12/13 04:16:13;;;;;;;22.38;10.51;;;;;;;2.08;72.14;99254.70;351679;113;1961903;-72
2020/12/13 04:17:19;;;;;;;24.01;12.16;;;;;;;2.05;72.39;99255.03;320062;113;1962023;-72
2020/12/13 04:18:24;;;;;;;26.15;11.14;;;;;;;2.05;72.50;99257.70;346672;114;1961938;-72
2020/12/13 04:19:31;;;;;;;26.66;12.35;;;;;;;2.04;72.52;99263.17;346663;114;1962034;-72
2020/12/13 04:20:38;;;;;;;24.82;10.41;;;;;;;2.07;72.51;99258.38;327324;114;1961944;-72
2020/12/13 04:21:44;;;;;;;30.30;11.96;;;;;;;2.04;72.79;99263.17;352532;113;1961907;-72
2020/12/13 04:22:49;;;;;;;27.20;11.56;;;;;;;2.04;72.77;99263.17;350495;113;1961970;-72
2020/12/13 04:23:55;;;;;;;27.21;11.39;;;;;;;2.07;72.76;99271.70;350090;114;1964002;-72
2020/12/13 04:25:00;;;;;;;28.11;12.08;;;;;;;2.10;72.66;99273.20;351367;113;1961983;-72
2020/12/13 04:26:06;;;;;;;27.71;12.36;;;;;;;2.13;72.39;99264.89;351811;113;1962909;-71
2020/12/13 04:27:12;;;;;;;30.43;13.16;;;;;;;2.12;72.51;99271.23;304410;114;2799075;-72
2020/12/13 04:28:17;;;;;;;27.61;12.11;;;;;;;2.09;72.57;99268.86;322723;113;1962996;-72
2020/12/13 04:29:23;;;;;;;30.38;12.84;;;;;;;2.09;72.82;99275.05;347673;114;1961900;-72
2020/12/13 04:30:28;;;;;;;34.49;13.64;;;;;;;2.11;72.98;99277.53;351195;113;1961979;-72
2020/12/13 04:31:47;;;;;;;25.71;12.02;;;;;;;2.13;72.77;99280.88;350866;113;1962001;-72
2020/12/13 04:32:54;;;;;;;30.08;12.89;;;;;;;2.15;72.85;99271.73;356925;111;1961967;-70
2020/12/13 04:34:00;;;;;;;35.46;12.39;;;;;;;2.17;72.79;99274.20;362319;109;1962042;-69
2020/12/13 04:35:07;;;;;;;26.85;11.95;;;;;;;2.20;72.86;99266.75;320873;109;2741868;-70
2020/12/13 04:36:13;;;;;;;26.78;11.99;;;;;;;2.19;72.89;99264.23;356499;112;1963026;-71
2020/12/13 04:37:23;;;;;;;28.27;12.72;;;;;;;2.20;73.04;99265.92;362328;110;1962036;-70
2020/12/13 04:38:27;;;;;;;32.22;12.38;;;;;;;2.22;72.98;99268.41;361409;110;1962995;-70
2020/12/13 04:39:36;;;;;;;34.17;12.39;;;;;;;2.20;73.30;99260.59;362330;110;1961935;-71
2020/12/13 04:40:42;;;;;;;27.69;12.14;;;;;;;2.24;72.88;99264.58;362803;110;1961955;-72
2020/12/13 04:41:47;;;;;;;28.93;12.52;;;;;;;2.26;72.84;99257.27;359724;108;1960708;-72
2020/12/13 04:42:54;;;;;;;31.02;11.77;;;;;;;2.26;72.99;99265.26;362318;111;1961976;-71
2020/12/13 04:44:00;;;;;;;26.18;12.62;;;;;;;2.28;73.03;99254.45;320921;110;2721955;-71
2020/12/13 04:45:08;;;;;;;24.46;11.40;;;;;;;2.27;73.21;99247.43;362201;110;1963972;-71
2020/12/13 04:46:14;;;;;;;23.68;10.89;;;;;;;2.28;73.21;99246.45;331760;110;2230662;-72
2020/12/13 04:47:20;;;;;;;28.21;11.87;;;;;;;2.30;73.03;99250.62;348582;112;1961981;-71
2020/12/13 04:48:27;;;;;;;27.59;12.16;;;;;;;2.29;73.36;99251.61;350585;112;1961835;-72
2020/12/13 04:49:35;;;;;;;30.24;13.32;;;;;;;2.27;73.41;99248.27;351995;112;1961973;-72
2020/12/13 04:50:40;;;;;;;23.10;11.30;;;;;;;2.28;73.51;99247.28;353753;110;1961958;-72
2020/12/13 04:51:50;;;;;;;20.94;11.11;;;;;;;2.29;73.62;99246.27;357404;111;1961955;-71
2020/12/13 04:52:57;;;;;;;25.26;13.28;;;;;;;2.28;73.68;99252.61;357381;110;1962996;-71
2020/12/13 04:54:06;;;;;;;23.32;11.46;;;;;;;2.30;73.68;99255.95;329023;110;2492971;-71
2020/12/13 04:55:14;;;;;;;25.01;11.99;;;;;;;2.28;73.78;99255.28;356740;110;1961932;-72
2020/12/13 04:56:22;;;;;;;37.19;17.08;;;;;;;2.33;73.90;99257.43;356899;110;1962940;-71
2020/12/13 04:57:28;;;;;;;25.60;12.71;;;;;;;2.35;73.70;99266.94;333835;110;2377021;-72
2020/12/13 04:58:33;;;;;;;23.41;11.44;;;;;;;2.41;73.62;99257.48;323537;110;1965933;-71
2020/12/13 04:59:40;;;;;;;22.22;11.32;;;;;;;2.47;73.17;99262.14;357467;110;1961889;-72
2020/12/13 05:00:49;;;;;;;24.38;11.16;;;;;;;2.50;72.85;99258.31;356554;111;1961935;-71
2020/12/13 05:01:54;;;;;;;24.02;11.12;;;;;;;2.49;73.12;99261.96;359212;110;1962000;-71
2020/12/13 05:03:00;;;;;;;23.47;12.29;;;;;;;2.48;73.07;99268.30;357602;110;1961941;-72
2020/12/13 05:04:07;;;;;;;25.74;12.67;;;;;;;2.48;73.06;99266.47;340818;110;2932928;-72
2020/12/13 05:05:14;;;;;;;22.26;12.51;;;;;;;2.48;73.14;99262.97;334330;110;1961844;-71